createdAt,value
2018-08-18T00:00:15.416Z,19.31
2018-08-18T00:02:44.223Z,19.32
2018-08-18T00:05:13.733Z,19.23
2018-08-18T00:07:42.520Z,19.34
2018-08-18T00:10:12.750Z,19.40
2018-08-18T00:12:41.473Z,19.42
2018-08-18T00:15:10.698Z,19.46
2018-08-18T00:17:39.897Z,19.41
2018-08-18T00:20:12.189Z,19.35
2018-08-18T00:22:41.007Z,19.36
2018-08-18T00:25:09.861Z,19.31
2018-08-18T00:27:38.613Z,19.31
2018-08-18T00:30:14.180Z,19.24
2018-08-18T00:32:42.946Z,19.30
2018-08-18T00:35:11.679Z,19.33
2018-08-18T00:37:40.466Z,19.39
2018-08-18T00:40:10.373Z,19.34
2018-08-18T00:42:39.300Z,19.28
2018-08-18T00:45:09.724Z,19.20
2018-08-18T00:47:38.720Z,19.17
2018-08-18T00:50:08.110Z,19.14
2018-08-18T00:52:36.907Z,19.10
2018-08-18T00:55:05.703Z,19.04
2018-08-18T00:57:34.512Z,19.01
2018-08-18T01:00:04.442Z,19.01
2018-08-18T01:02:33.165Z,19.01
2018-08-18T01:05:02.737Z,19.05
2018-08-18T01:07:32.352Z,19.14
2018-08-18T01:10:01.437Z,19.05
2018-08-18T01:12:30.357Z,18.99
2018-08-18T01:14:59.048Z,18.84
2018-08-18T01:17:27.867Z,18.75
2018-08-18T01:19:57.950Z,18.74
2018-08-18T01:22:26.734Z,18.72
2018-08-18T01:24:55.507Z,18.67
2018-08-18T01:27:24.255Z,18.66
2018-08-18T01:30:04.367Z,18.60
2018-08-18T01:32:33.751Z,18.53
2018-08-18T01:35:02.560Z,18.51
2018-08-18T01:37:32.397Z,18.48
2018-08-18T01:40:01.569Z,18.46
2018-08-18T01:42:33.050Z,18.49
2018-08-18T01:45:01.827Z,18.46
2018-08-18T01:47:30.744Z,18.42
2018-08-18T01:50:04.334Z,18.44
2018-08-18T01:52:34.002Z,18.47
2018-08-18T01:55:02.701Z,18.39
2018-08-18T01:57:31.427Z,18.39
2018-08-18T02:00:05.270Z,18.45
2018-08-18T02:02:34.101Z,18.46
2018-08-18T02:05:11.909Z,18.50
2018-08-18T02:07:41.015Z,18.49
2018-08-18T02:10:09.759Z,18.41
2018-08-18T02:12:39.846Z,18.31
2018-08-18T02:15:08.554Z,18.30
2018-08-18T02:17:38.354Z,18.30
2018-08-18T02:20:08.885Z,18.29
2018-08-18T02:22:37.558Z,18.20
2018-08-18T02:25:06.725Z,18.06
2018-08-18T02:27:35.611Z,18.08
2018-08-18T02:30:15.015Z,18.08
2018-08-18T02:32:43.788Z,18.24
2018-08-18T02:35:12.563Z,18.38
2018-08-18T02:37:41.351Z,18.48
2018-08-18T02:40:12.422Z,18.47
2018-08-18T02:42:41.250Z,18.51
2018-08-18T02:45:10.839Z,18.50
2018-08-18T02:47:39.754Z,18.43
2018-08-18T02:50:09.581Z,18.49
2018-08-18T02:52:38.382Z,18.35
2018-08-18T02:55:09.199Z,18.42
2018-08-18T02:57:44.480Z,18.51
2018-08-18T03:00:48.396Z,18.56
2018-08-18T03:03:17.591Z,18.57
2018-08-18T03:05:46.409Z,18.54
2018-08-18T03:08:15.106Z,18.52
2018-08-18T03:10:43.856Z,18.38
2018-08-18T03:13:12.532Z,18.27
2018-08-18T03:15:57.170Z,18.25
2018-08-18T03:18:40.158Z,18.15
2018-08-18T03:21:08.835Z,18.06
2018-08-18T03:23:37.724Z,18.01
2018-08-18T03:26:06.522Z,17.94
2018-08-18T03:28:40.531Z,17.91
2018-08-18T03:31:09.334Z,17.88
2018-08-18T03:33:38.079Z,17.86
2018-08-18T03:36:21.834Z,17.74
2018-08-18T03:38:50.651Z,17.58
2018-08-18T03:41:19.442Z,17.65
2018-08-18T03:43:48.185Z,17.70
2018-08-18T03:46:16.969Z,17.72
2018-08-18T03:48:45.771Z,17.75
2018-08-18T03:51:14.534Z,17.77
2018-08-18T03:53:43.231Z,17.78
2018-08-18T03:56:11.985Z,17.88
2018-08-18T03:58:53.500Z,17.80
2018-08-18T04:02:00.133Z,17.75
2018-08-18T04:04:30.918Z,17.65
2018-08-18T04:07:00.624Z,17.50
2018-08-18T04:09:31.259Z,17.51
2018-08-18T04:12:01.489Z,17.50
2018-08-18T04:14:35.450Z,17.53
2018-08-18T04:17:04.239Z,17.45
2018-08-18T04:19:33.056Z,17.46
2018-08-18T04:22:01.801Z,17.41
2018-08-18T04:24:36.531Z,17.59
2018-08-18T04:27:05.281Z,17.65
2018-08-18T04:29:34.039Z,17.74
2018-08-18T04:32:02.900Z,17.83
2018-08-18T04:34:31.602Z,17.86
2018-08-18T04:37:01.869Z,17.87
2018-08-18T04:39:30.551Z,17.90
2018-08-18T04:41:59.333Z,17.85
2018-08-18T04:44:28.041Z,17.88
2018-08-18T04:46:56.796Z,17.90
2018-08-18T04:49:25.503Z,17.89
2018-08-18T04:51:54.195Z,17.89
2018-08-18T04:54:22.892Z,17.87
2018-08-18T04:56:51.710Z,17.84
2018-08-18T04:59:21.615Z,17.79
2018-08-18T05:01:50.271Z,17.76
2018-08-18T05:04:19.010Z,17.74
2018-08-18T05:06:47.764Z,17.73
2018-08-18T05:09:16.531Z,17.78
2018-08-18T05:11:45.357Z,17.79
2018-08-18T05:14:13.995Z,17.86
2018-08-18T05:16:42.823Z,17.95
2018-08-18T05:19:11.652Z,18.09
2018-08-18T05:21:40.287Z,18.21
2018-08-18T05:24:22.918Z,18.25
2018-08-18T05:26:52.616Z,18.29
2018-08-18T05:29:23.108Z,18.34
2018-08-18T05:31:51.879Z,18.40
2018-08-18T05:34:20.645Z,18.52
2018-08-18T05:36:49.354Z,18.62
2018-08-18T05:39:18.128Z,18.72
2018-08-18T05:41:46.886Z,18.77
2018-08-18T05:44:15.663Z,18.87
2018-08-18T05:46:44.484Z,18.95
2018-08-18T05:49:17.092Z,18.91
2018-08-18T05:51:48.612Z,19.00
2018-08-18T05:54:21.747Z,19.02
2018-08-18T05:56:50.515Z,19.04
2018-08-18T05:59:19.331Z,19.11
2018-08-18T06:01:48.131Z,19.25
2018-08-18T06:04:18.480Z,19.36
2018-08-18T06:06:47.831Z,19.36
2018-08-18T06:09:17.737Z,19.45
2018-08-18T06:11:46.628Z,19.59
2018-08-18T06:14:15.852Z,19.70
2018-08-18T06:16:45.067Z,19.75
2018-08-18T06:19:13.912Z,19.84
2018-08-18T06:21:42.673Z,20.01
2018-08-18T06:24:11.509Z,20.09
2018-08-18T06:26:40.292Z,20.06
2018-08-18T06:29:08.991Z,20.18
2018-08-18T06:31:52.874Z,20.26
2018-08-18T06:34:21.612Z,20.42
2018-08-18T06:36:50.347Z,20.53
2018-08-18T06:39:19.039Z,20.40
2018-08-18T06:41:47.852Z,20.64
2018-08-18T06:44:17.318Z,20.73
2018-08-18T06:46:48.136Z,20.79
2018-08-18T06:49:16.895Z,20.96
2018-08-18T06:51:45.634Z,21.10
2018-08-18T06:54:14.463Z,21.22
2018-08-18T06:56:43.237Z,21.32
2018-08-18T06:59:12.074Z,21.47
2018-08-18T07:01:40.806Z,21.58
2018-08-18T07:04:13.919Z,21.67
2018-08-18T07:06:42.662Z,21.77
2018-08-18T07:09:11.396Z,21.92
2018-08-18T07:11:40.115Z,22.03
2018-08-18T07:14:08.927Z,22.17
2018-08-18T07:16:37.641Z,22.30
2018-08-18T07:19:06.402Z,22.43
2018-08-18T07:21:35.793Z,22.51
2018-08-18T07:24:04.560Z,22.61
2018-08-18T07:26:33.272Z,22.68
2018-08-18T07:29:02.166Z,22.81
2018-08-18T07:31:30.806Z,22.93
2018-08-18T07:33:59.535Z,23.08
2018-08-18T07:36:28.246Z,23.14
2018-08-18T07:38:57.027Z,23.10
2018-08-18T07:41:25.747Z,23.07
2018-08-18T07:43:54.390Z,23.28
2018-08-18T07:46:23.199Z,23.45
2018-08-18T07:48:51.959Z,23.54
2018-08-18T07:51:20.880Z,23.68
2018-08-18T07:53:49.665Z,23.81
2018-08-18T07:56:18.367Z,23.91
2018-08-18T07:58:47.090Z,24.09
2018-08-18T08:01:15.799Z,24.25
2018-08-18T08:03:44.485Z,24.36
2018-08-18T08:06:13.210Z,24.47
2018-08-18T08:08:48.982Z,24.66
2018-08-18T08:11:17.720Z,24.78
2018-08-18T08:13:46.455Z,24.94
2018-08-18T08:16:15.223Z,25.01
2018-08-18T08:18:43.980Z,25.10
2018-08-18T08:21:12.787Z,25.18
2018-08-18T08:23:41.511Z,25.33
2018-08-18T08:26:10.346Z,25.39
2018-08-18T08:28:39.130Z,25.56
2018-08-18T08:31:07.898Z,25.73
2018-08-18T08:33:38.414Z,25.85
2018-08-18T08:36:10.384Z,25.89
2018-08-18T08:38:52.804Z,26.03
2018-08-18T08:41:24.493Z,25.98
2018-08-18T08:43:53.295Z,26.06
2018-08-18T08:46:22.436Z,26.15
2018-08-18T08:48:57.571Z,26.15
2018-08-18T08:51:26.830Z,26.05
2018-08-18T08:53:57.149Z,26.18
2018-08-18T08:56:31.005Z,26.29
2018-08-18T08:58:59.757Z,26.54
2018-08-18T09:01:28.478Z,26.65
2018-08-18T09:03:57.235Z,26.67
2018-08-18T09:06:25.962Z,26.70
2018-08-18T09:08:58.289Z,26.75
2018-08-18T09:11:27.590Z,26.80
2018-08-18T09:14:02.961Z,26.94
2018-08-18T09:16:32.955Z,27.06
2018-08-18T09:19:01.614Z,27.03
2018-08-18T09:21:37.899Z,27.15
2018-08-18T09:24:06.928Z,27.18
2018-08-18T09:26:39.751Z,27.30
2018-08-18T09:29:08.446Z,27.08
2018-08-18T09:31:37.099Z,27.10
2018-08-18T09:34:05.815Z,27.30
2018-08-18T09:36:34.518Z,27.30
2018-08-18T09:39:03.309Z,27.36
2018-08-18T09:41:32.032Z,27.52
2018-08-18T09:44:00.712Z,27.63
2018-08-18T09:46:29.384Z,27.69
2018-08-18T09:48:58.127Z,27.77
2018-08-18T09:51:26.922Z,27.75
2018-08-18T09:53:55.679Z,27.85
2018-08-18T09:56:24.469Z,27.76
2018-08-18T09:58:53.253Z,27.90
2018-08-18T10:01:22.589Z,27.96
2018-08-18T10:03:51.283Z,28.11
2018-08-18T10:06:20.039Z,28.09
2018-08-18T10:08:48.771Z,27.99
2018-08-18T10:11:17.524Z,28.03
2018-08-18T10:13:46.310Z,28.16
2018-08-18T10:16:15.098Z,27.97
2018-08-18T10:18:49.616Z,28.14
2018-08-18T10:21:18.424Z,28.29
2018-08-18T10:23:47.189Z,28.35
2018-08-18T10:26:15.927Z,28.39
2018-08-18T10:28:44.692Z,28.47
2018-08-18T10:31:13.443Z,28.65
2018-08-18T10:33:42.142Z,28.91
2018-08-18T10:36:10.923Z,29.05
2018-08-18T10:38:39.648Z,29.37
2018-08-18T10:41:08.303Z,29.62
2018-08-18T10:43:37.227Z,29.97
2018-08-18T10:46:06.057Z,30.58
2018-08-18T10:48:34.737Z,31.12
2018-08-18T10:51:25.447Z,31.55
2018-08-18T10:53:54.535Z,32.16
2018-08-18T10:56:23.836Z,32.57
2018-08-18T10:59:08.831Z,32.58
2018-08-18T11:01:39.014Z,33.20
2018-08-18T11:04:07.700Z,33.21
2018-08-18T11:06:36.436Z,33.20
2018-08-18T11:09:06.120Z,32.72
2018-08-18T11:11:34.844Z,32.78
2018-08-18T11:14:03.566Z,33.27
2018-08-18T11:16:32.347Z,33.35
2018-08-18T11:19:01.027Z,33.76
2018-08-18T11:21:33.832Z,34.35
2018-08-18T11:24:08.651Z,34.42
2018-08-18T11:26:39.243Z,34.47
2018-08-18T11:29:15.507Z,34.10
2018-08-18T11:31:44.764Z,34.28
2018-08-18T11:34:13.498Z,34.37
2018-08-18T11:37:01.062Z,34.86
2018-08-18T11:39:31.092Z,34.89
2018-08-18T11:42:00.324Z,35.02
2018-08-18T11:44:29.110Z,35.28
2018-08-18T11:46:57.800Z,35.32
2018-08-18T11:49:26.473Z,35.29
2018-08-18T11:51:56.141Z,34.06
2018-08-18T11:54:24.959Z,34.33
2018-08-18T11:56:54.183Z,34.93
2018-08-18T11:59:22.893Z,35.53
2018-08-18T12:01:53.424Z,35.28
2018-08-18T12:04:22.847Z,35.62
2018-08-18T12:06:59.392Z,36.13
2018-08-18T12:09:28.482Z,36.30
2018-08-18T12:11:57.244Z,36.36
2018-08-18T12:14:25.942Z,36.88
2018-08-18T12:16:54.626Z,36.32
2018-08-18T12:19:23.363Z,36.37
2018-08-18T12:21:52.181Z,35.56
2018-08-18T12:24:21.711Z,34.77
2018-08-18T12:27:01.808Z,34.06
2018-08-18T12:29:31.106Z,33.29
2018-08-18T12:31:59.962Z,32.62
2018-08-18T12:34:28.792Z,32.88
2018-08-18T12:36:57.713Z,33.65
2018-08-18T12:39:26.386Z,34.10
2018-08-18T12:41:55.127Z,34.81
2018-08-18T12:44:28.914Z,35.46
2018-08-18T12:46:57.664Z,35.59
2018-08-18T12:49:26.373Z,35.63
2018-08-18T12:51:55.129Z,35.70
2018-08-18T12:54:23.783Z,35.87
2018-08-18T12:56:52.540Z,35.86
2018-08-18T12:59:21.292Z,35.83
2018-08-18T13:01:51.099Z,36.21
2018-08-18T13:04:21.119Z,36.72
2018-08-18T13:06:51.314Z,37.07
2018-08-18T13:09:21.381Z,37.22
2018-08-18T13:11:51.416Z,36.36
2018-08-18T13:14:24.370Z,35.75
2018-08-18T13:16:53.110Z,35.14
2018-08-18T13:19:23.980Z,34.75
2018-08-18T13:21:52.703Z,35.18
2018-08-18T13:24:21.417Z,34.89
2018-08-18T13:26:50.151Z,34.13
2018-08-18T13:29:18.938Z,34.52
2018-08-18T13:31:47.690Z,34.50
2018-08-18T13:34:17.541Z,33.79
2018-08-18T13:36:47.024Z,33.96
2018-08-18T13:39:18.852Z,34.09
2018-08-18T13:41:48.449Z,33.44
2018-08-18T13:44:23.796Z,32.76
2018-08-18T13:46:52.667Z,31.93
2018-08-18T13:49:24.461Z,31.31
2018-08-18T13:51:53.327Z,31.00
2018-08-18T13:54:22.122Z,31.10
2018-08-18T13:56:50.899Z,31.67
2018-08-18T13:59:34.588Z,31.21
2018-08-18T14:02:03.312Z,31.23
2018-08-18T14:04:31.989Z,31.48
2018-08-18T14:07:00.646Z,32.09
2018-08-18T14:09:29.411Z,32.81
2018-08-18T14:12:03.619Z,33.53
2018-08-18T14:14:32.322Z,34.18
2018-08-18T14:17:01.050Z,34.69
2018-08-18T14:19:29.780Z,34.55
2018-08-18T14:22:04.254Z,34.20
2018-08-18T14:24:34.748Z,33.58
2018-08-18T14:27:04.808Z,33.78
2018-08-18T14:29:34.315Z,34.34
2018-08-18T14:32:06.275Z,34.58
2018-08-18T14:34:34.985Z,34.63
2018-08-18T14:37:09.531Z,34.54
2018-08-18T14:39:39.650Z,34.68
2018-08-18T14:42:08.843Z,34.69
2018-08-18T14:44:38.254Z,34.31
2018-08-18T14:47:07.295Z,33.61
2018-08-18T14:49:36.103Z,32.63
2018-08-18T14:52:04.955Z,32.23
2018-08-18T14:55:36.634Z,32.68
2018-08-18T14:58:05.350Z,33.27
2018-08-18T15:00:34.088Z,33.55
2018-08-18T15:03:02.859Z,33.63
2018-08-18T15:05:31.536Z,33.77
2018-08-18T15:08:01.113Z,34.05
2018-08-18T15:10:41.591Z,33.92
2018-08-18T15:13:11.064Z,34.11
2018-08-18T15:15:39.854Z,34.23
2018-08-18T15:18:12.631Z,34.24
2018-08-18T15:20:41.961Z,34.36
2018-08-18T15:23:11.423Z,34.07
2018-08-18T15:25:41.078Z,34.05
2018-08-18T15:28:14.920Z,33.79
2018-08-18T15:30:47.137Z,33.82
2018-08-18T15:33:16.978Z,33.42
2018-08-18T15:35:45.714Z,33.35
2018-08-18T15:38:14.577Z,33.47
2018-08-18T15:40:43.684Z,33.53
2018-08-18T15:43:12.420Z,33.43
2018-08-18T15:45:56.917Z,33.76
2018-08-18T15:48:25.959Z,33.45
2018-08-18T15:50:54.735Z,33.53
2018-08-18T15:54:00.449Z,33.34
2018-08-18T15:56:30.223Z,32.91
2018-08-18T15:58:59.891Z,32.95
2018-08-18T16:01:29.777Z,32.64
2018-08-18T16:04:01.753Z,32.55
2018-08-18T16:06:30.560Z,32.46
2018-08-18T16:08:59.302Z,32.35
2018-08-18T16:11:28.002Z,32.33
2018-08-18T16:13:56.727Z,32.34
2018-08-18T16:16:25.503Z,32.20
2018-08-18T16:19:02.230Z,32.20
2018-08-18T16:21:33.308Z,31.90
2018-08-18T16:24:02.544Z,31.86
2018-08-18T16:26:31.307Z,31.81
2018-08-18T16:29:00.232Z,31.68
2018-08-18T16:31:28.962Z,31.44
2018-08-18T16:33:57.820Z,31.36
2018-08-18T16:36:32.688Z,31.19
2018-08-18T16:39:01.795Z,30.91
2018-08-18T16:41:30.531Z,30.77
2018-08-18T16:43:59.235Z,30.52
2018-08-18T16:46:31.023Z,30.61
2018-08-18T16:48:59.863Z,30.41
2018-08-18T16:51:28.558Z,30.53
2018-08-18T16:54:11.226Z,30.33
2018-08-18T16:56:39.922Z,29.98
2018-08-18T16:59:08.630Z,29.87
2018-08-18T17:01:37.336Z,29.64
2018-08-18T17:04:06.066Z,29.51
2018-08-18T17:06:34.780Z,29.34
2018-08-18T17:09:04.027Z,29.17
2018-08-18T17:11:32.722Z,29.04
2018-08-18T17:14:01.505Z,28.91
2018-08-18T17:16:30.252Z,28.70
2018-08-18T17:18:58.987Z,28.53
2018-08-18T17:21:27.669Z,28.57
2018-08-18T17:23:56.330Z,28.40
2018-08-18T17:26:25.205Z,28.22
2018-08-18T17:28:54.539Z,28.07
2018-08-18T17:31:23.332Z,27.97
2018-08-18T17:33:51.964Z,27.82
2018-08-18T17:36:20.641Z,27.79
2018-08-18T17:38:49.345Z,27.69
2018-08-18T17:41:18.064Z,27.62
2018-08-18T17:43:46.799Z,27.59
2018-08-18T17:46:15.576Z,27.49
2018-08-18T17:48:49.344Z,27.39
2018-08-18T17:51:18.059Z,27.32
2018-08-18T17:53:53.673Z,27.14
2018-08-18T17:56:22.370Z,27.04
2018-08-18T17:58:51.147Z,27.00
2018-08-18T18:01:19.882Z,26.96
2018-08-18T18:03:48.611Z,26.94
2018-08-18T18:06:17.379Z,26.86
2018-08-18T18:08:46.103Z,26.83
2018-08-18T18:11:14.813Z,26.59
2018-08-18T18:13:43.498Z,26.14
2018-08-18T18:16:23.312Z,26.26
2018-08-18T18:18:52.200Z,26.13
2018-08-18T18:21:21.032Z,26.20
2018-08-18T18:23:49.705Z,26.09
2018-08-18T18:26:18.421Z,26.08
2018-08-18T18:28:47.125Z,26.08
2018-08-18T18:31:15.903Z,25.98
2018-08-18T18:33:48.389Z,25.95
2018-08-18T18:36:17.169Z,25.74
2018-08-18T18:38:54.341Z,25.83
2018-08-18T18:41:23.160Z,25.79
2018-08-18T18:43:59.546Z,25.78
2018-08-18T18:46:28.309Z,25.26
2018-08-18T18:48:57.208Z,25.16
2018-08-18T18:51:26.014Z,25.27
2018-08-18T18:53:57.047Z,25.09
2018-08-18T18:56:25.766Z,25.18
2018-08-18T18:58:54.667Z,25.29
2018-08-18T19:01:23.405Z,25.20
2018-08-18T19:05:19.846Z,25.24
2018-08-18T19:07:52.926Z,25.28
2018-08-18T19:10:23.467Z,25.27
2018-08-18T19:12:53.475Z,25.22
2018-08-18T19:15:22.769Z,25.24
2018-08-18T19:17:51.483Z,25.19
2018-08-18T19:20:25.101Z,25.12
2018-08-18T19:23:26.490Z,25.02
2018-08-18T19:25:55.168Z,24.96
2018-08-18T19:28:23.883Z,24.95
2018-08-18T19:30:52.534Z,24.98
2018-08-18T19:33:21.303Z,25.05
2018-08-18T19:35:51.190Z,25.07
2018-08-18T19:38:20.923Z,25.04
2018-08-18T19:40:52.686Z,25.08
2018-08-18T19:43:24.522Z,25.04
2018-08-18T19:45:54.327Z,24.98
2018-08-18T19:48:24.334Z,24.90
2018-08-18T19:50:58.389Z,24.84
2018-08-18T19:53:31.040Z,24.82
2018-08-18T19:56:00.582Z,24.71
2018-08-18T19:58:29.809Z,24.68
2018-08-18T20:00:58.585Z,24.71
2018-08-18T20:03:27.599Z,24.73
2018-08-18T20:05:56.256Z,24.74
2018-08-18T20:08:26.216Z,24.75
2018-08-18T20:10:55.590Z,24.72
2018-08-18T20:13:25.613Z,24.74
2018-08-18T20:15:57.486Z,24.75
2018-08-18T20:18:26.250Z,24.74
2018-08-18T20:20:57.279Z,24.71
2018-08-18T20:23:25.987Z,24.67
2018-08-18T20:25:54.720Z,24.71
2018-08-18T20:28:23.474Z,24.69
2018-08-18T20:30:52.223Z,24.69
2018-08-18T20:33:20.993Z,24.67
2018-08-18T20:35:49.765Z,24.58
2018-08-18T20:38:18.466Z,24.56
2018-08-18T20:40:47.214Z,24.42
2018-08-18T20:43:15.909Z,24.42
2018-08-18T20:45:48.520Z,24.14
2018-08-18T20:48:19.781Z,24.13
2018-08-18T20:50:48.479Z,24.08
2018-08-18T20:53:17.741Z,24.02
2018-08-18T20:55:56.307Z,23.90
2018-08-18T20:58:25.121Z,23.83
2018-08-18T21:00:53.784Z,23.75
2018-08-18T21:03:23.928Z,23.63
2018-08-18T21:05:52.657Z,23.61
2018-08-18T21:08:21.379Z,23.55
2018-08-18T21:10:50.279Z,23.49
2018-08-18T21:13:19.118Z,23.43
2018-08-18T21:15:47.852Z,23.44
2018-08-18T21:18:19.526Z,23.45
2018-08-18T21:20:48.951Z,23.31
2018-08-18T21:23:18.550Z,23.38
2018-08-18T21:25:50.804Z,23.32
2018-08-18T21:28:20.395Z,23.26
2018-08-18T21:30:49.535Z,23.26
2018-08-18T21:33:18.273Z,23.27
2018-08-18T21:35:46.993Z,23.31
2018-08-18T21:38:15.709Z,23.29
2018-08-18T21:40:44.432Z,23.30
2018-08-18T21:43:24.335Z,23.27
2018-08-18T21:45:53.894Z,23.29
2018-08-18T21:48:32.670Z,23.26
2018-08-18T21:51:02.224Z,23.20
2018-08-18T21:53:30.929Z,23.21
2018-08-18T21:56:00.997Z,23.07
2018-08-18T21:58:29.743Z,23.00
2018-08-18T22:01:03.786Z,23.00
2018-08-18T22:03:32.616Z,23.00
2018-08-18T22:06:01.539Z,23.00
2018-08-18T22:08:30.232Z,23.09
2018-08-18T22:10:58.983Z,23.16
2018-08-18T22:13:27.750Z,23.14
2018-08-18T22:15:56.527Z,23.14
2018-08-18T22:18:25.248Z,23.11
2018-08-18T22:20:53.916Z,23.02
2018-08-18T22:23:22.583Z,22.91
2018-08-18T22:25:51.302Z,22.72
2018-08-18T22:28:21.262Z,22.66
2018-08-18T22:30:50.034Z,22.73
2018-08-18T22:33:18.951Z,22.74
2018-08-18T22:35:51.707Z,22.71
2018-08-18T22:38:20.414Z,22.69
2018-08-18T22:40:49.102Z,22.62
2018-08-18T22:43:22.406Z,22.48
2018-08-18T22:45:51.173Z,22.62
2018-08-18T22:48:19.889Z,22.65
2018-08-18T22:50:48.596Z,22.69
2018-08-18T22:53:17.328Z,22.77
2018-08-18T22:55:46.043Z,22.76
2018-08-18T22:58:14.695Z,22.79
2018-08-18T23:00:45.311Z,22.80
2018-08-18T23:03:14.306Z,22.76
2018-08-18T23:05:42.998Z,22.55
2018-08-18T23:08:11.759Z,22.38
2018-08-18T23:10:40.548Z,22.34
2018-08-18T23:13:11.021Z,22.28
2018-08-18T23:15:39.748Z,22.29
2018-08-18T23:18:08.553Z,22.16
2018-08-18T23:20:37.436Z,22.11
2018-08-18T23:23:06.320Z,22.17
2018-08-18T23:25:35.986Z,22.20
2018-08-18T23:29:34.090Z,22.12
2018-08-18T23:32:16.585Z,21.97
2018-08-18T23:34:45.326Z,22.00
2018-08-18T23:37:18.121Z,22.01
2018-08-18T23:39:47.031Z,22.05
2018-08-18T23:42:20.823Z,22.05
2018-08-18T23:44:49.534Z,22.03
2018-08-18T23:47:18.596Z,21.97
2018-08-18T23:49:47.437Z,21.96
2018-08-18T23:52:16.195Z,21.97
2018-08-18T23:54:45.006Z,21.87
2018-08-18T23:57:16.080Z,21.87
2018-08-18T23:59:45.296Z,21.87
